createdAt,value
2018-12-16T00:02:01.559Z,86.62
2018-12-16T00:04:30.861Z,86.65
2018-12-16T00:07:00.613Z,87.74
2018-12-16T00:09:29.857Z,86.95
2018-12-16T00:11:59.095Z,86.44
2018-12-16T00:14:28.313Z,87.91
2018-12-16T00:16:57.544Z,88.52
2018-12-16T00:19:27.509Z,88.81
2018-12-16T00:21:56.884Z,88.59
2018-12-16T00:24:26.390Z,89.51
2018-12-16T00:27:06.613Z,87.27
2018-12-16T00:29:37.584Z,86.37
2018-12-16T00:32:07.222Z,87.77
2018-12-16T00:34:36.606Z,86.31
2018-12-16T00:37:05.920Z,87.04
2018-12-16T00:39:35.601Z,87.67
2018-12-16T00:42:04.853Z,88.93
2018-12-16T00:44:36.549Z,88.72
2018-12-16T00:47:06.693Z,88.80
2018-12-16T00:49:36.645Z,87.84
2018-12-16T00:52:05.890Z,87.55
2018-12-16T00:54:35.130Z,87.49
2018-12-16T00:57:04.819Z,88.12
2018-12-16T00:59:34.031Z,87.42
2018-12-16T01:02:06.445Z,87.32
2018-12-16T01:04:35.729Z,86.77
2018-12-16T01:07:04.985Z,87.14
2018-12-16T01:09:34.284Z,88.27
2018-12-16T01:12:03.928Z,87.17
2018-12-16T01:14:33.177Z,88.18
2018-12-16T01:17:02.688Z,88.08
2018-12-16T01:19:33.035Z,87.17
2018-12-16T01:22:04.137Z,85.13
2018-12-16T01:24:33.372Z,85.95
2018-12-16T01:27:03.372Z,85.57
2018-12-16T01:29:32.942Z,86.36
2018-12-16T01:32:02.215Z,87.00
2018-12-16T01:34:31.461Z,87.64
2018-12-16T01:37:00.796Z,88.51
2018-12-16T01:39:30.043Z,86.17
2018-12-16T01:42:00.408Z,86.98
2018-12-16T01:44:29.923Z,86.63
2018-12-16T01:46:59.799Z,87.97
2018-12-16T01:49:29.046Z,87.50
2018-12-16T01:51:58.792Z,87.47
2018-12-16T01:54:28.015Z,87.15
2018-12-16T01:56:57.395Z,87.62
2018-12-16T01:59:28.002Z,88.65
2018-12-16T02:01:57.243Z,88.70
2018-12-16T02:04:27.345Z,88.90
2018-12-16T02:06:57.004Z,88.38
2018-12-16T02:09:26.255Z,88.85
2018-12-16T02:11:55.485Z,89.28
2018-12-16T02:14:24.732Z,89.89
2018-12-16T02:16:54.282Z,89.66
2018-12-16T02:19:24.111Z,90.17
2018-12-16T02:21:53.396Z,90.45
2018-12-16T02:24:22.960Z,89.75
2018-12-16T02:26:52.208Z,89.45
2018-12-16T02:29:22.509Z,89.77
2018-12-16T02:31:52.093Z,89.10
2018-12-16T02:34:21.355Z,89.92
2018-12-16T02:36:50.616Z,90.07
2018-12-16T02:39:20.800Z,89.57
2018-12-16T02:41:50.078Z,89.09
2018-12-16T02:44:19.781Z,89.69
2018-12-16T02:46:49.290Z,90.40
2018-12-16T02:49:18.508Z,89.97
2018-12-16T02:51:49.203Z,90.71
2018-12-16T02:54:18.453Z,90.70
2018-12-16T02:56:47.729Z,90.04
2018-12-16T02:59:17.051Z,90.39
2018-12-16T03:01:49.504Z,89.74
2018-12-16T03:04:19.714Z,89.67
2018-12-16T03:06:49.333Z,89.14
2018-12-16T03:09:20.496Z,89.33
2018-12-16T03:11:49.802Z,88.94
2018-12-16T03:14:19.969Z,89.17
2018-12-16T03:16:49.273Z,88.93
2018-12-16T03:19:18.555Z,87.95
2018-12-16T03:21:47.795Z,88.82
2018-12-16T03:24:17.770Z,88.67
2018-12-16T03:26:47.011Z,88.47
2018-12-16T03:29:16.222Z,88.95
2018-12-16T03:31:45.511Z,89.05
2018-12-16T03:34:15.039Z,88.64
2018-12-16T03:36:44.419Z,88.72
2018-12-16T03:39:14.846Z,88.63
2018-12-16T03:41:44.136Z,87.24
2018-12-16T03:44:13.894Z,86.70
2018-12-16T03:46:43.413Z,87.83
2018-12-16T03:49:12.986Z,87.26
2018-12-16T03:51:42.542Z,87.68
2018-12-16T03:54:13.672Z,86.92
2018-12-16T03:56:42.959Z,88.37
2018-12-16T03:59:18.436Z,88.72
2018-12-16T04:01:52.930Z,86.97
2018-12-16T04:04:22.250Z,87.54
2018-12-16T04:06:51.505Z,87.34
2018-12-16T04:09:21.786Z,87.54
2018-12-16T04:11:51.515Z,87.90
2018-12-16T04:14:20.745Z,87.31
2018-12-16T04:16:49.978Z,87.70
2018-12-16T04:19:19.242Z,88.83
2018-12-16T04:21:48.754Z,87.70
2018-12-16T04:24:18.576Z,86.94
2018-12-16T04:26:47.808Z,87.63
2018-12-16T04:29:17.071Z,87.55
2018-12-16T04:31:46.371Z,88.63
2018-12-16T04:34:15.617Z,88.08
2018-12-16T04:36:45.491Z,88.26
2018-12-16T04:39:15.124Z,88.25
2018-12-16T04:41:45.364Z,87.70
2018-12-16T04:44:15.009Z,87.63
2018-12-16T04:46:44.256Z,87.97
2018-12-16T04:49:13.466Z,89.13
2018-12-16T04:51:42.718Z,88.18
2018-12-16T04:54:12.334Z,89.05
2018-12-16T04:56:41.625Z,90.52
2018-12-16T04:59:10.922Z,90.15
2018-12-16T05:01:40.164Z,90.64
2018-12-16T05:04:09.782Z,89.96
2018-12-16T05:06:39.519Z,88.97
2018-12-16T05:09:09.338Z,87.78
2018-12-16T05:11:38.612Z,88.37
2018-12-16T05:14:07.894Z,87.33
2018-12-16T05:16:37.158Z,87.78
2018-12-16T05:19:06.988Z,87.76
2018-12-16T05:21:36.640Z,87.89
2018-12-16T05:24:05.852Z,87.98
2018-12-16T05:26:35.135Z,87.71
2018-12-16T05:29:04.896Z,87.97
2018-12-16T05:31:34.182Z,87.81
2018-12-16T05:34:03.458Z,88.25
2018-12-16T05:36:33.718Z,88.10
2018-12-16T05:39:03.593Z,88.09
2018-12-16T05:41:32.843Z,88.56
2018-12-16T05:44:02.110Z,88.36
2018-12-16T05:46:31.352Z,88.26
2018-12-16T05:49:00.619Z,88.39
2018-12-16T05:51:33.429Z,88.81
2018-12-16T05:54:02.910Z,88.13
2018-12-16T05:56:32.161Z,88.64
2018-12-16T05:59:01.716Z,89.18
2018-12-16T06:01:30.994Z,89.09
2018-12-16T06:04:00.304Z,89.20
2018-12-16T06:06:29.875Z,88.98
2018-12-16T06:09:02.350Z,88.42
2018-12-16T06:11:31.631Z,89.08
2018-12-16T06:14:00.949Z,88.74
2018-12-16T06:16:31.323Z,88.86
2018-12-16T06:19:01.229Z,89.34
2018-12-16T06:21:30.481Z,88.70
2018-12-16T06:24:00.374Z,88.91
2018-12-16T06:26:30.581Z,88.68
2018-12-16T06:28:59.850Z,89.14
2018-12-16T06:31:29.932Z,89.27
2018-12-16T06:34:00.986Z,89.71
2018-12-16T06:36:30.207Z,89.27
2018-12-16T06:38:59.512Z,89.90
2018-12-16T06:41:28.809Z,89.65
2018-12-16T06:43:59.587Z,89.95
2018-12-16T06:46:28.848Z,89.05
2018-12-16T06:48:58.077Z,89.63
2018-12-16T06:51:28.714Z,90.14
2018-12-16T06:54:02.428Z,90.30
2018-12-16T06:56:29.325Z,90.56
2018-12-16T06:58:58.561Z,90.69
2018-12-16T07:01:28.344Z,90.51
2018-12-16T07:03:57.578Z,90.51
2018-12-16T07:06:27.317Z,90.55
2018-12-16T07:08:56.557Z,91.21
2018-12-16T07:11:25.812Z,90.41
2018-12-16T07:13:56.881Z,90.80
2018-12-16T07:16:26.886Z,91.00
2018-12-16T07:18:57.533Z,90.42
2018-12-16T07:21:26.807Z,90.82
2018-12-16T07:23:57.462Z,90.20
2018-12-16T07:26:26.824Z,91.31
2018-12-16T07:28:56.983Z,90.82
2018-12-16T07:31:26.499Z,91.32
2018-12-16T07:33:56.063Z,91.21
2018-12-16T07:36:25.696Z,91.21
2018-12-16T07:38:54.995Z,90.87
2018-12-16T07:41:24.285Z,91.52
2018-12-16T07:43:53.600Z,90.54
2018-12-16T07:46:23.573Z,91.01
2018-12-16T07:48:53.101Z,89.96
2018-12-16T07:51:22.805Z,90.53
2018-12-16T07:53:53.146Z,90.08
2018-12-16T07:56:22.894Z,89.94
2018-12-16T07:58:52.984Z,90.02
2018-12-16T08:01:24.155Z,89.48
2018-12-16T08:03:53.452Z,89.68
2018-12-16T08:06:24.667Z,88.99
2018-12-16T08:08:54.751Z,88.92
2018-12-16T08:11:24.017Z,89.10
2018-12-16T08:13:53.497Z,88.40
2018-12-16T08:16:23.713Z,88.20
2018-12-16T08:18:56.458Z,88.43
2018-12-16T08:21:26.372Z,88.01
2018-12-16T08:23:55.905Z,88.93
2018-12-16T08:26:26.149Z,87.35
2018-12-16T08:28:56.875Z,88.44
2018-12-16T08:31:28.470Z,87.90
2018-12-16T08:33:57.807Z,87.76
2018-12-16T08:36:28.450Z,88.24
2018-12-16T08:38:57.721Z,87.23
2018-12-16T08:41:28.519Z,86.61
2018-12-16T08:43:59.325Z,86.18
2018-12-16T08:46:29.512Z,86.63
2018-12-16T08:51:53.909Z,86.79
2018-12-16T08:54:29.927Z,85.37
2018-12-16T08:56:55.544Z,86.17
2018-12-16T08:59:24.832Z,84.82
2018-12-16T09:01:54.660Z,85.29
2018-12-16T09:04:24.385Z,85.34
2018-12-16T09:06:54.520Z,84.21
2018-12-16T09:09:24.334Z,84.52
2018-12-16T09:11:53.658Z,83.36
2018-12-16T09:14:24.078Z,83.71
2018-12-16T09:16:53.800Z,82.79
2018-12-16T09:19:23.525Z,83.80
2018-12-16T09:21:52.729Z,84.16
2018-12-16T09:24:25.997Z,83.99
2018-12-16T09:26:55.493Z,84.28
2018-12-16T09:29:25.024Z,84.13
2018-12-16T09:31:56.258Z,84.90
2018-12-16T09:34:25.861Z,84.58
2018-12-16T09:36:58.674Z,84.09
2018-12-16T09:39:28.505Z,84.93
2018-12-16T09:41:58.848Z,83.72
2018-12-16T09:44:30.725Z,84.07
2018-12-16T09:47:00.401Z,84.62
2018-12-16T09:49:30.488Z,84.02
2018-12-16T09:52:01.032Z,83.70
2018-12-16T09:54:30.630Z,83.75
2018-12-16T09:56:59.950Z,85.07
2018-12-16T09:59:29.205Z,84.44
2018-12-16T10:01:58.966Z,84.34
2018-12-16T10:04:29.186Z,84.32
2018-12-16T10:06:58.549Z,83.58
2018-12-16T10:09:28.817Z,84.39
2018-12-16T10:11:59.427Z,83.72
2018-12-16T10:14:29.170Z,83.60
2018-12-16T10:17:01.690Z,83.08
2018-12-16T10:19:31.613Z,82.95
2018-12-16T10:22:01.792Z,83.01
2018-12-16T10:24:31.886Z,82.00
2018-12-16T10:27:02.280Z,82.99
2018-12-16T10:29:32.766Z,81.61
2018-12-16T10:32:02.173Z,82.24
2018-12-16T10:34:32.037Z,82.08
2018-12-16T10:37:01.543Z,81.61
2018-12-16T10:39:30.920Z,81.46
2018-12-16T10:42:01.404Z,81.73
2018-12-16T10:44:31.279Z,83.36
2018-12-16T10:47:01.766Z,82.58
2018-12-16T10:49:31.305Z,82.27
2018-12-16T10:52:01.903Z,82.06
2018-12-16T10:54:32.390Z,80.97
2018-12-16T11:00:18.341Z,80.63
2018-12-16T11:02:48.694Z,80.92
2018-12-16T11:05:18.976Z,82.14
2018-12-16T11:07:48.461Z,81.72
2018-12-16T11:10:17.775Z,81.21
2018-12-16T11:12:48.581Z,80.30
2018-12-16T11:15:18.373Z,80.11
2018-12-16T11:17:47.730Z,79.72
2018-12-16T11:20:22.059Z,80.54
2018-12-16T11:22:51.392Z,81.70
2018-12-16T11:25:23.681Z,81.70
2018-12-16T11:27:54.009Z,81.15
2018-12-16T11:30:24.393Z,80.19
2018-12-16T11:32:54.125Z,81.31
2018-12-16T11:35:30.426Z,81.77
2018-12-16T11:38:00.676Z,81.56
2018-12-16T11:40:31.374Z,81.44
2018-12-16T11:43:01.808Z,82.78
2018-12-16T11:45:34.256Z,82.26
2018-12-16T11:48:08.434Z,81.41
2018-12-16T11:50:38.029Z,81.47
2018-12-16T11:53:09.142Z,80.26
2018-12-16T11:55:38.486Z,80.98
2018-12-16T11:58:33.584Z,80.22
2018-12-16T12:01:04.411Z,79.85
2018-12-16T12:03:35.671Z,80.34
2018-12-16T12:06:06.477Z,80.24
2018-12-16T12:08:36.766Z,80.28
2018-12-16T12:11:07.063Z,80.52
2018-12-16T12:13:37.937Z,79.58
2018-12-16T12:16:08.254Z,79.79
2018-12-16T12:18:37.553Z,79.16
2018-12-16T12:21:07.878Z,79.55
2018-12-16T12:23:38.145Z,78.78
2018-12-16T12:26:08.386Z,79.61
2018-12-16T12:28:40.509Z,78.33
2018-12-16T12:31:14.376Z,78.18
2018-12-16T12:33:46.738Z,78.38
2018-12-16T12:36:19.354Z,78.49
2018-12-16T12:38:49.175Z,77.81
2018-12-16T12:41:19.592Z,77.92
2018-12-16T12:43:49.492Z,78.75
2018-12-16T12:46:22.691Z,77.46
2018-12-16T12:49:00.610Z,77.07
2018-12-16T12:51:30.932Z,78.35
2018-12-16T12:54:03.102Z,77.68
2018-12-16T12:56:35.142Z,77.34
2018-12-16T12:59:06.917Z,77.86
2018-12-16T13:01:36.707Z,77.77
2018-12-16T13:04:08.699Z,77.87
2018-12-16T13:06:39.537Z,77.70
2018-12-16T13:09:10.422Z,78.88
2018-12-16T13:11:40.055Z,78.19
2018-12-16T13:14:09.326Z,79.10
2018-12-16T13:16:39.718Z,79.37
2018-12-16T13:19:10.433Z,80.94
2018-12-16T13:21:41.566Z,80.00
2018-12-16T13:24:33.912Z,82.53
2018-12-16T13:27:42.914Z,83.70
2018-12-16T13:30:12.389Z,83.60
2018-12-16T13:32:41.672Z,84.78
2018-12-16T13:35:11.451Z,85.37
2018-12-16T13:37:42.201Z,87.04
2018-12-16T13:40:11.573Z,84.32
2018-12-16T13:42:42.277Z,85.27
2018-12-16T13:45:12.056Z,86.28
2018-12-16T13:47:42.321Z,86.41
2018-12-16T13:50:12.752Z,85.23
2018-12-16T13:52:45.093Z,86.57
2018-12-16T13:55:15.497Z,86.07
2018-12-16T13:57:46.214Z,85.66
2018-12-16T14:00:16.616Z,86.33
2018-12-16T14:02:46.482Z,86.59
2018-12-16T14:05:16.595Z,86.51
2018-12-16T14:07:46.612Z,86.47
2018-12-16T14:10:15.853Z,87.23
2018-12-16T14:12:46.818Z,88.40
2018-12-16T14:15:17.395Z,87.55
2018-12-16T14:17:46.980Z,87.46
2018-12-16T14:20:17.001Z,87.52
2018-12-16T14:22:46.709Z,87.43
2018-12-16T14:25:17.790Z,87.76
2018-12-16T14:27:47.117Z,87.83
2018-12-16T14:30:17.411Z,88.46
2018-12-16T14:32:49.076Z,88.24
2018-12-16T14:35:21.313Z,87.27
2018-12-16T14:37:53.696Z,87.07
2018-12-16T14:40:27.270Z,87.94
2018-12-16T14:42:56.531Z,88.09
2018-12-16T14:45:25.882Z,88.31
2018-12-16T14:47:56.091Z,88.29
2018-12-16T14:50:26.460Z,88.84
2018-12-16T14:52:56.276Z,87.52
2018-12-16T14:55:26.365Z,88.10
2018-12-16T14:57:56.101Z,87.84
2018-12-16T15:00:26.575Z,88.31
2018-12-16T15:02:56.307Z,87.89
2018-12-16T15:05:25.965Z,87.69
2018-12-16T15:07:57.893Z,87.61
2018-12-16T15:10:27.446Z,87.65
2018-12-16T15:12:57.014Z,88.36
2018-12-16T15:15:39.359Z,88.06
2018-12-16T15:18:09.491Z,88.81
2018-12-16T15:20:40.010Z,88.48
2018-12-16T15:23:10.329Z,88.77
2018-12-16T15:25:41.671Z,89.37
2018-12-16T15:28:15.677Z,89.66
2018-12-16T15:30:46.318Z,89.89
2018-12-16T15:33:17.680Z,90.19
2018-12-16T15:35:52.891Z,91.24
2018-12-16T15:38:26.007Z,90.69
2018-12-16T15:40:55.471Z,91.39
2018-12-16T15:43:24.808Z,91.50
2018-12-16T15:45:54.962Z,92.37
2018-12-16T15:48:25.845Z,92.58
2018-12-16T15:50:57.334Z,92.82
2018-12-16T15:53:28.518Z,92.79
2018-12-16T15:55:58.388Z,91.68
2018-12-16T15:58:29.624Z,91.65
2018-12-16T16:01:04.373Z,91.45
2018-12-16T16:03:44.829Z,90.62
2018-12-16T16:06:21.365Z,91.92
2018-12-16T16:08:53.645Z,91.79
2018-12-16T16:11:27.590Z,91.99
2018-12-16T16:13:58.390Z,92.27
2018-12-16T16:16:28.065Z,92.61
2018-12-16T16:18:59.348Z,93.03
2018-12-16T16:21:35.573Z,93.15
2018-12-16T16:25:45.322Z,93.47
2018-12-16T16:28:17.229Z,93.26
2018-12-16T16:30:47.417Z,93.52
2018-12-16T16:33:18.061Z,93.82
2018-12-16T16:35:47.999Z,93.35
2018-12-16T16:38:43.716Z,94.13
2018-12-16T16:41:18.341Z,94.20
2018-12-16T16:46:35.859Z,93.93
2018-12-16T16:49:05.180Z,94.60
2018-12-16T16:51:34.830Z,94.65
2018-12-16T16:54:04.987Z,93.90
2018-12-16T16:56:34.541Z,94.60
2018-12-16T16:59:05.093Z,94.79
2018-12-16T17:01:36.413Z,94.49
2018-12-16T17:04:06.077Z,95.06
2018-12-16T17:06:39.788Z,94.89
2018-12-16T17:09:09.640Z,95.46
2018-12-16T17:11:39.090Z,94.98
2018-12-16T17:14:10.249Z,95.47
2018-12-16T17:16:39.910Z,94.74
2018-12-16T17:19:09.705Z,94.75
2018-12-16T17:21:40.383Z,95.45
2018-12-16T17:24:10.676Z,95.34
2018-12-16T17:26:40.454Z,95.18
2018-12-16T17:29:11.040Z,94.97
2018-12-16T17:31:40.657Z,94.70
2018-12-16T17:34:10.321Z,95.59
2018-12-16T17:36:44.379Z,95.11
2018-12-16T17:39:15.465Z,95.39
2018-12-16T17:41:45.926Z,95.24
2018-12-16T17:44:15.742Z,95.80
2018-12-16T17:46:47.692Z,96.41
2018-12-16T17:49:21.839Z,96.17
2018-12-16T17:51:51.338Z,95.75
2018-12-16T17:54:26.155Z,96.33
2018-12-16T17:56:56.414Z,96.27
2018-12-16T17:59:28.542Z,96.50
2018-12-16T18:02:00.174Z,96.57
2018-12-16T18:04:30.527Z,97.44
2018-12-16T18:07:01.810Z,98.03
2018-12-16T18:09:33.646Z,97.43
2018-12-16T18:12:04.082Z,96.69
2018-12-16T18:14:34.993Z,96.47
2018-12-16T18:17:07.334Z,96.48
2018-12-16T18:19:40.586Z,96.67
2018-12-16T18:22:14.097Z,96.57
2018-12-16T18:24:47.519Z,96.75
2018-12-16T18:27:17.687Z,96.90
2018-12-16T18:29:47.257Z,97.57
2018-12-16T18:32:18.627Z,97.17
2018-12-16T18:34:49.975Z,97.18
2018-12-16T18:37:19.462Z,96.82
2018-12-16T18:39:50.175Z,96.63
2018-12-16T18:42:20.188Z,97.19
2018-12-16T18:44:50.626Z,96.72
2018-12-16T18:47:21.486Z,97.88
2018-12-16T18:49:51.540Z,97.43
2018-12-16T18:52:26.972Z,98.52
2018-12-16T18:54:56.590Z,98.15
2018-12-16T18:57:26.566Z,97.89
2018-12-16T18:59:58.562Z,98.39
2018-12-16T19:02:28.578Z,97.26
2018-12-16T19:04:59.371Z,97.55
2018-12-16T19:07:37.711Z,97.82
2018-12-16T19:10:15.238Z,98.20
2018-12-16T19:15:39.816Z,97.94
2018-12-16T19:18:11.353Z,98.63
2018-12-16T19:20:41.149Z,98.28
2018-12-16T19:23:10.655Z,99.53
2018-12-16T19:25:42.308Z,98.59
2018-12-16T19:28:11.954Z,99.12
2018-12-16T19:30:42.839Z,98.49
2018-12-16T19:33:12.471Z,99.23
2018-12-16T19:35:41.900Z,99.06
2018-12-16T19:38:13.378Z,99.29
2018-12-16T19:40:45.341Z,99.52
2018-12-16T19:43:16.580Z,98.29
2018-12-16T19:45:47.231Z,99.11
2018-12-16T19:48:18.541Z,99.73
2018-12-16T19:53:23.844Z,99.52
2018-12-16T19:55:54.420Z,98.80
2018-12-16T19:58:24.810Z,99.44
2018-12-16T20:00:54.611Z,99.75
2018-12-16T20:03:26.214Z,99.72
2018-12-16T20:06:00.919Z,99.27
2018-12-16T20:08:31.619Z,99.30
2018-12-16T20:11:03.374Z,100.00
2018-12-16T20:13:33.483Z,99.93
2018-12-16T20:16:04.015Z,100.00
2018-12-16T20:18:33.398Z,99.85
2018-12-16T20:21:07.801Z,100.00
2018-12-16T20:23:37.411Z,99.56
2018-12-16T20:26:08.227Z,99.40
2018-12-16T20:28:39.631Z,99.58
2018-12-16T20:31:09.046Z,99.80
2018-12-16T20:33:38.418Z,99.93
2018-12-16T20:36:20.904Z,99.28
2018-12-16T20:38:52.056Z,100.00
2018-12-16T20:41:24.134Z,100.00
2018-12-16T20:43:56.039Z,100.00
2018-12-16T20:46:27.044Z,100.00
2018-12-16T20:48:58.122Z,100.00
2018-12-16T20:51:28.178Z,99.91
2018-12-16T20:53:57.888Z,100.00
2018-12-16T20:56:27.249Z,100.00
2018-12-16T20:58:57.809Z,100.00
2018-12-16T21:01:35.482Z,100.00
2018-12-16T21:04:05.516Z,100.00
2018-12-16T21:06:36.479Z,100.00
2018-12-16T21:09:08.337Z,100.00
2018-12-16T21:11:43.081Z,100.00
2018-12-16T21:14:18.574Z,100.00
2018-12-16T21:16:53.326Z,100.00
2018-12-16T21:19:22.823Z,100.00
2018-12-16T21:21:52.605Z,100.00
2018-12-16T21:24:22.732Z,100.00
2018-12-16T21:26:55.299Z,100.00
2018-12-16T21:29:26.785Z,100.00
2018-12-16T21:31:57.233Z,100.00
2018-12-16T21:35:41.628Z,100.00
2018-12-16T21:38:11.924Z,100.00
2018-12-16T21:40:42.964Z,100.00
2018-12-16T21:43:13.041Z,100.00
2018-12-16T21:45:43.021Z,100.00
2018-12-16T21:48:12.353Z,100.00
2018-12-16T21:50:41.617Z,100.00
2018-12-16T21:53:11.803Z,100.00
2018-12-16T21:55:42.812Z,100.00
2018-12-16T21:58:16.692Z,100.00
2018-12-16T22:00:47.181Z,100.00
2018-12-16T22:03:19.424Z,100.00
2018-12-16T22:05:48.801Z,100.00
2018-12-16T22:08:20.678Z,100.00
2018-12-16T22:10:51.377Z,100.00
2018-12-16T22:13:24.799Z,100.00
2018-12-16T22:15:58.225Z,100.00
2018-12-16T22:18:28.087Z,100.00
2018-12-16T22:20:58.090Z,100.00
2018-12-16T22:23:28.980Z,100.00
2018-12-16T22:25:58.255Z,100.00
2018-12-16T22:28:27.587Z,100.00
2018-12-16T22:30:58.301Z,100.00
2018-12-16T22:33:29.770Z,100.00
2018-12-16T22:36:00.404Z,100.00
2018-12-16T22:38:30.033Z,100.00
2018-12-16T22:41:00.162Z,100.00
2018-12-16T22:43:31.683Z,100.00
2018-12-16T22:46:03.499Z,100.00
2018-12-16T22:48:33.855Z,100.00
2018-12-16T22:51:05.444Z,100.00
2018-12-16T22:53:34.740Z,100.00
2018-12-16T22:56:04.089Z,100.00
2018-12-16T22:58:33.434Z,100.00
2018-12-16T23:01:09.401Z,100.00
2018-12-16T23:03:39.497Z,100.00
2018-12-16T23:06:11.074Z,100.00
2018-12-16T23:08:41.996Z,100.00
2018-12-16T23:11:11.325Z,100.00
2018-12-16T23:13:40.899Z,100.00
2018-12-16T23:16:11.369Z,100.00
2018-12-16T23:18:42.741Z,100.00
2018-12-16T23:21:13.561Z,100.00
2018-12-16T23:23:42.829Z,100.00
2018-12-16T23:26:12.442Z,100.00
2018-12-16T23:28:43.717Z,100.00
2018-12-16T23:31:12.989Z,100.00
2018-12-16T23:33:45.153Z,100.00
2018-12-16T23:36:16.741Z,100.00
2018-12-16T23:38:46.719Z,100.00
2018-12-16T23:41:17.563Z,100.00
2018-12-16T23:43:48.492Z,100.00
2018-12-16T23:46:20.457Z,100.00
2018-12-16T23:48:51.753Z,100.00
2018-12-16T23:51:21.064Z,100.00
2018-12-16T23:53:50.434Z,100.00
2018-12-16T23:56:19.733Z,100.00
2018-12-16T23:58:48.998Z,100.00
